Time;durP1;ratioP1;P1;durP2;ratioP2;P2;SDS_P1;SDS_P2;PMS_P1;PMS_P2;Temp;Humidity;BMP_temperature;BMP_pressure;BME280_temperature;BME280_humidity;BME280_pressure;Samples;Min_cycle;Max_cycle;Signal;HPM_P1;HPM_P2
2021/09/11 00:00:29;;;;;;;17.52;8.82;;;;;;;14.11;74.24;99749.66;5076099;28;20036;-50
2021/09/11 00:03:04;;;;;;;13.15;8.50;;;;;;;14.11;74.03;99751.44;5076332;28;20094;-50
2021/09/11 00:05:30;;;;;;;12.13;8.48;;;;;;;14.09;73.98;99748.84;5075100;28;20032;-50
2021/09/11 00:07:56;;;;;;;16.20;9.38;;;;;;;14.08;74.23;99746.28;5076265;28;20044;-50
2021/09/11 00:10:21;;;;;;;15.07;8.80;;;;;;;14.07;74.30;99740.19;5076302;28;20338;-50
2021/09/11 00:12:47;;;;;;;17.50;9.05;;;;;;;14.06;74.27;99742.84;5075924;28;20054;-50
2021/09/11 00:15:14;;;;;;;13.23;9.18;;;;;;;14.06;74.38;99745.50;5076210;28;20207;-50
2021/09/11 00:17:40;;;;;;;17.00;8.38;;;;;;;14.04;74.45;99748.19;5076049;28;20052;-50
2021/09/11 00:20:07;;;;;;;14.07;8.55;;;;;;;14.00;74.53;99742.16;5076448;28;20056;-50
2021/09/11 00:22:33;;;;;;;16.90;9.30;;;;;;;13.98;74.88;99743.19;5075807;28;20434;-50
2021/09/11 00:24:58;;;;;;;17.42;8.93;;;;;;;13.94;74.91;99741.56;5075825;28;20044;-50
2021/09/11 00:27:24;;;;;;;17.33;8.98;;;;;;;13.95;74.86;99743.28;5075830;28;20044;-50
2021/09/11 00:29:50;;;;;;;13.95;8.90;;;;;;;13.93;74.92;99737.22;5076591;28;20049;-50
2021/09/11 00:32:16;;;;;;;18.40;9.75;;;;;;;13.92;74.64;99735.53;5075709;28;20059;-50
2021/09/11 00:34:42;;;;;;;15.98;9.27;;;;;;;13.89;74.68;99733.84;5075730;28;20036;-50
2021/09/11 00:37:08;;;;;;;19.42;9.85;;;;;;;13.82;74.54;99732.41;5075937;28;20102;-50
2021/09/11 00:39:33;;;;;;;20.67;9.30;;;;;;;13.87;74.49;99733.06;5075799;28;20044;-50
2021/09/11 00:41:59;;;;;;;16.88;9.52;;;;;;;13.86;74.59;99730.50;5075404;28;20065;-50
2021/09/11 00:44:25;;;;;;;20.92;10.73;;;;;;;13.82;75.35;99732.41;5075629;28;20075;-50
2021/09/11 00:46:51;;;;;;;21.05;10.50;;;;;;;13.81;75.21;99733.28;5074984;28;20048;-50
2021/09/11 00:49:17;;;;;;;17.17;9.85;;;;;;;13.79;75.09;99728.09;5075847;28;20056;-50
2021/09/11 00:51:42;;;;;;;21.42;11.50;;;;;;;13.79;75.05;99729.88;5075824;28;20053;-50
2021/09/11 00:54:09;;;;;;;17.70;10.07;;;;;;;13.78;75.13;99729.03;5074918;28;20481;-50
2021/09/11 00:56:35;;;;;;;17.65;9.55;;;;;;;13.77;75.40;99729.06;5074848;28;20048;-50
2021/09/11 00:59:01;;;;;;;18.15;9.10;;;;;;;13.76;75.71;99727.38;5075215;28;20036;-50
2021/09/11 01:01:27;;;;;;;15.48;9.57;;;;;;;13.76;75.45;99725.59;5075748;28;20079;-50
2021/09/11 01:03:53;;;;;;;17.40;9.80;;;;;;;13.76;75.77;99733.47;5075431;28;20048;-50
2021/09/11 01:06:19;;;;;;;15.18;8.68;;;;;;;13.75;75.94;99726.50;5075707;28;20048;-50
2021/09/11 01:08:45;;;;;;;13.65;7.95;;;;;;;13.74;76.30;99727.41;5075574;28;20047;-50
2021/09/11 01:11:11;;;;;;;14.23;8.80;;;;;;;13.73;75.97;99724.84;5075347;28;20063;-50
2021/09/11 01:13:37;;;;;;;19.30;8.90;;;;;;;13.71;75.76;99724.03;5075367;28;20059;-50
2021/09/11 01:16:03;;;;;;;15.48;8.90;;;;;;;13.71;75.88;99732.78;5075939;28;20431;-50
2021/09/11 01:18:29;;;;;;;16.45;9.38;;;;;;;13.70;75.97;99744.25;5078320;28;20040;-50
2021/09/11 01:20:55;;;;;;;13.90;8.45;;;;;;;13.68;75.83;99732.94;5079518;28;20342;-50
2021/09/11 01:23:21;;;;;;;15.90;8.95;;;;;;;13.66;76.15;99734.75;5094836;28;20049;-50
2021/09/11 01:25:47;;;;;;;13.75;8.13;;;;;;;13.66;76.26;99740.03;5079116;28;20114;-50
2021/09/11 01:28:13;;;;;;;13.52;8.75;;;;;;;13.65;76.13;99742.69;5078755;28;20397;-50
2021/09/11 01:30:39;;;;;;;14.10;8.32;;;;;;;13.64;76.19;99741.84;5078739;28;20075;-50
2021/09/11 01:33:05;;;;;;;15.77;9.23;;;;;;;13.63;76.49;99739.28;5078762;28;20040;-50
2021/09/11 01:35:31;;;;;;;17.00;10.05;;;;;;;13.62;76.77;99737.59;5078754;28;20047;-50
2021/09/11 01:37:56;;;;;;;17.20;9.15;;;;;;;13.62;76.25;99742.84;5078516;28;20431;-50
2021/09/11 01:40:23;;;;;;;18.90;10.00;;;;;;;13.59;76.68;99743.81;5078641;28;20045;-50
2021/09/11 01:42:49;;;;;;;17.38;8.68;;;;;;;13.57;76.89;99743.88;5078396;28;20083;-50
2021/09/11 01:45:16;;;;;;;24.13;12.25;;;;;;;13.56;76.69;99742.16;5078787;28;20072;-50
2021/09/11 01:47:43;;;;;;;34.72;18.67;;;;;;;13.56;76.88;99731.63;5078748;28;20044;-50
2021/09/11 01:50:10;;;;;;;32.78;19.13;;;;;;;13.54;76.92;99730.81;5077831;28;20045;-50
2021/09/11 01:52:36;;;;;;;29.42;17.77;;;;;;;13.53;76.71;99736.16;5078277;28;20049;-50
2021/09/11 01:55:07;;;;;;;32.85;19.02;;;;;;;13.51;76.82;99736.19;5078592;28;20052;-50
2021/09/11 01:57:34;;;;;;;26.30;14.80;;;;;;;13.51;77.21;99737.97;5077749;28;20048;-50
2021/09/11 02:00:00;;;;;;;23.48;14.10;;;;;;;13.49;77.02;99734.56;5078501;28;20049;-50
2021/09/11 02:02:26;;;;;;;23.73;13.10;;;;;;;13.48;76.87;99740.72;5078140;28;20413;-50
2021/09/11 02:04:52;;;;;;;17.88;10.88;;;;;;;13.45;77.02;99731.16;5078398;28;20048;-50
2021/09/11 02:07:17;;;;;;;18.52;10.77;;;;;;;13.44;77.43;99734.72;5078032;28;20524;-50
2021/09/11 02:09:43;;;;;;;20.52;8.63;;;;;;;13.44;77.13;99733.88;5078008;28;20056;-50
2021/09/11 02:12:09;;;;;;;15.02;8.98;;;;;;;13.42;77.06;99731.31;5078293;28;20048;-50
2021/09/11 02:14:35;;;;;;;12.75;7.97;;;;;;;13.40;77.12;99738.41;5077990;28;20393;-50
2021/09/11 02:17:03;;;;;;;12.57;8.25;;;;;;;13.40;77.28;99735.75;5076997;28;20040;-50
2021/09/11 02:19:30;;;;;;;14.20;9.38;;;;;;;13.39;77.26;99728.78;5077874;28;20119;-50
2021/09/11 02:21:56;;;;;;;15.85;8.88;;;;;;;13.37;77.24;99732.41;5076980;28;20070;-50
2021/09/11 02:24:22;;;;;;;14.25;8.90;;;;;;;13.36;76.87;99734.16;5078086;28;20040;-50
2021/09/11 02:26:47;;;;;;;11.43;7.97;;;;;;;13.36;76.92;99735.91;5078015;28;20059;-50
2021/09/11 02:29:14;;;;;;;12.88;7.57;;;;;;;13.33;76.97;99729.03;5076714;28;20041;-50
2021/09/11 02:31:40;;;;;;;12.50;8.32;;;;;;;13.31;77.01;99729.06;5077913;28;20048;-50
2021/09/11 02:34:05;;;;;;;14.00;9.32;;;;;;;13.28;77.17;99726.53;5077555;28;20059;-50
2021/09/11 02:36:31;;;;;;;16.63;10.50;;;;;;;13.28;77.13;99730.94;5078007;28;20036;-50
2021/09/11 02:38:57;;;;;;;19.55;10.32;;;;;;;13.28;77.18;99730.94;5077732;28;20443;-50
2021/09/11 02:41:23;;;;;;;20.33;11.45;;;;;;;13.27;76.78;99729.25;5077460;28;20413;-50
2021/09/11 02:43:49;;;;;;;20.42;10.18;;;;;;;13.24;77.10;99730.22;5076517;28;20067;-50
2021/09/11 02:46:15;;;;;;;20.83;9.68;;;;;;;13.24;76.83;99730.22;5077580;28;20048;-50
2021/09/11 02:48:41;;;;;;;16.27;9.07;;;;;;;13.22;76.97;99729.38;5077340;28;20044;-50
2021/09/11 02:51:06;;;;;;;12.63;8.55;;;;;;;13.22;76.81;99728.50;5077228;28;20044;-50
2021/09/11 02:53:32;;;;;;;13.80;8.25;;;;;;;13.20;77.06;99733.00;5077541;28;20119;-50
2021/09/11 02:55:58;;;;;;;12.55;8.45;;;;;;;13.18;76.74;99734.81;5077398;28;20048;-50
2021/09/11 02:58:24;;;;;;;12.95;7.82;;;;;;;13.14;76.77;99728.81;5077015;28;20052;-50
2021/09/11 03:00:52;;;;;;;15.02;8.38;;;;;;;13.16;76.73;99734.00;5077013;28;20052;-50
2021/09/11 03:03:18;;;;;;;11.50;7.80;;;;;;;13.13;77.06;99740.25;5077263;28;20044;-50
2021/09/11 03:05:44;;;;;;;12.55;8.32;;;;;;;13.12;77.02;99735.88;5077182;28;20063;-50
2021/09/11 03:08:10;;;;;;;13.25;8.68;;;;;;;13.13;76.93;99739.38;5077470;28;20103;-50
2021/09/11 03:10:36;;;;;;;20.00;9.15;;;;;;;13.11;77.20;99734.19;5076822;28;20049;-50
2021/09/11 03:13:01;;;;;;;15.55;9.30;;;;;;;13.10;76.91;99737.72;5077063;28;20053;-50
2021/09/11 03:15:27;;;;;;;15.32;9.45;;;;;;;13.10;77.12;99737.72;5077342;28;20052;-50
2021/09/11 03:17:53;;;;;;;14.27;9.23;;;;;;;13.08;77.54;99734.28;5076673;28;20048;-50
2021/09/11 03:20:19;;;;;;;13.68;8.68;;;;;;;13.08;77.56;99739.53;5076710;28;20101;-50
2021/09/11 03:22:45;;;;;;;14.77;8.73;;;;;;;13.06;77.73;99730.84;5076918;28;20056;-50
2021/09/11 03:25:12;;;;;;;18.50;8.70;;;;;;;13.05;77.78;99732.63;5076875;28;20049;-50
2021/09/11 03:27:37;;;;;;;16.65;9.07;;;;;;;13.05;77.77;99734.41;5076842;28;20045;-50
2021/09/11 03:30:04;;;;;;;17.98;9.75;;;;;;;13.05;77.46;99730.00;5076570;28;20327;-50
2021/09/11 03:32:30;;;;;;;24.63;10.90;;;;;;;13.03;77.39;99726.59;5076715;28;20045;-50
2021/09/11 03:34:55;;;;;;;35.92;13.43;;;;;;;12.98;77.59;99715.38;5076346;28;20105;-50
2021/09/11 03:37:21;;;;;;;34.55;13.93;;;;;;;13.01;77.54;99727.53;5076320;28;20064;-50
2021/09/11 03:39:47;;;;;;;39.10;15.90;;;;;;;13.00;77.55;99725.81;5076411;28;20045;-50
2021/09/11 03:42:12;;;;;;;40.83;16.38;;;;;;;13.00;77.43;99731.06;5076095;28;20056;-50
2021/09/11 03:44:38;;;;;;;48.10;17.75;;;;;;;12.99;77.67;99729.34;5076294;28;20048;-50
2021/09/11 03:47:04;;;;;;;42.50;15.25;;;;;;;12.98;77.69;99725.03;5076152;28;20481;-50
2021/09/11 03:49:30;;;;;;;38.15;14.93;;;;;;;12.98;77.57;99728.50;5075629;28;20048;-50
2021/09/11 03:51:56;;;;;;;31.45;12.52;;;;;;;12.87;77.45;99709.66;5075340;28;20098;-50
2021/09/11 03:54:21;;;;;;;25.95;12.60;;;;;;;12.97;77.84;99723.31;5076240;28;20430;-50
2021/09/11 03:56:47;;;;;;;18.98;9.75;;;;;;;12.96;77.99;99721.59;5076596;28;20449;-50
2021/09/11 03:59:13;;;;;;;19.80;9.60;;;;;;;12.97;78.27;99725.94;5076137;28;20342;-50
2021/09/11 04:01:39;;;;;;;19.90;10.02;;;;;;;12.97;78.04;99726.81;5076099;28;20063;-50
2021/09/11 04:04:05;;;;;;;18.77;9.98;;;;;;;12.95;78.61;99735.66;5076328;28;20145;-50
2021/09/11 04:06:31;;;;;;;18.48;10.25;;;;;;;12.95;78.12;99736.50;5075978;28;20048;-50
2021/09/11 04:08:56;;;;;;;19.80;9.82;;;;;;;12.95;77.99;99731.25;5076242;28;20052;-50
2021/09/11 04:11:22;;;;;;;17.48;9.25;;;;;;;12.95;78.06;99727.75;5076700;28;20094;-50
2021/09/11 04:13:48;;;;;;;13.85;8.68;;;;;;;12.94;78.32;99721.66;5075049;28;20059;-50
2021/09/11 04:16:14;;;;;;;12.13;7.95;;;;;;;12.94;78.06;99719.03;5075987;28;20055;-50
2021/09/11 04:18:39;;;;;;;15.27;7.10;;;;;;;12.94;78.01;99719.03;5076115;28;20069;-50
2021/09/11 04:21:05;;;;;;;12.70;7.93;;;;;;;12.94;77.94;99721.66;5075919;28;20040;-50
2021/09/11 04:23:31;;;;;;;11.63;7.75;;;;;;;12.90;77.95;99712.13;5075799;28;20056;-50
2021/09/11 04:25:57;;;;;;;9.65;7.20;;;;;;;12.94;77.99;99719.03;5076397;28;20098;-50
2021/09/11 04:28:22;;;;;;;10.75;7.38;;;;;;;12.95;77.83;99719.88;5076057;28;20052;-50
2021/09/11 04:30:48;;;;;;;11.77;7.97;;;;;;;12.96;77.87;99722.44;5076105;28;20048;-50
2021/09/11 04:33:14;;;;;;;10.68;7.65;;;;;;;12.96;78.39;99716.31;5075708;28;20056;-50
2021/09/11 04:35:40;;;;;;;16.50;9.07;;;;;;;12.97;78.44;99718.91;5075711;28;20516;-50
2021/09/11 04:38:06;;;;;;;22.55;10.52;;;;;;;13.00;78.54;99720.56;5075910;28;20044;-50
2021/09/11 04:40:31;;;;;;;24.65;9.70;;;;;;;13.02;78.39;99726.63;5075712;28;20059;-50
2021/09/11 04:42:57;;;;;;;20.70;10.35;;;;;;;13.04;78.40;99724.81;5075505;28;20053;-50
2021/09/11 04:45:23;;;;;;;27.50;11.48;;;;;;;13.07;78.48;99724.69;5075653;28;20041;-50
2021/09/11 04:47:49;;;;;;;24.23;11.00;;;;;;;13.09;78.45;99723.69;5075835;28;20129;-50
2021/09/11 04:50:15;;;;;;;22.75;10.82;;;;;;;13.11;78.46;99728.91;5074919;28;20137;-50
2021/09/11 04:52:40;;;;;;;22.77;10.73;;;;;;;13.14;78.48;99727.97;5079045;28;20052;-50
2021/09/11 04:55:07;;;;;;;19.20;9.85;;;;;;;13.16;78.61;99727.00;5079700;28;20113;-50
2021/09/11 04:57:34;;;;;;;20.45;9.43;;;;;;;13.24;78.12;99729.31;5079626;28;20051;-50
2021/09/11 05:00:00;;;;;;;17.33;9.25;;;;;;;13.28;78.17;99725.69;5079394;28;20040;-50
2021/09/11 05:02:26;;;;;;;19.13;9.80;;;;;;;13.33;78.24;99735.13;5079615;28;20362;-50
2021/09/11 05:04:53;;;;;;;17.60;9.73;;;;;;;13.38;78.02;99734.94;5079307;28;20473;-50
2021/09/11 05:07:19;;;;;;;16.30;9.02;;;;;;;13.43;78.27;99733.03;5078649;28;20044;-50
2021/09/11 05:09:44;;;;;;;16.58;9.38;;;;;;;13.48;78.26;99738.94;5079210;28;20037;-50
2021/09/11 05:12:10;;;;;;;13.40;8.55;;;;;;;13.54;78.22;99741.34;5079128;28;20098;-50
2021/09/11 05:14:36;;;;;;;12.55;8.52;;;;;;;13.60;78.37;99744.66;5079114;28;20049;-50
2021/09/11 05:17:02;;;;;;;15.13;7.15;;;;;;;13.66;78.48;99742.66;5078984;28;20044;-50
2021/09/11 05:19:27;;;;;;;11.73;7.40;;;;;;;13.75;78.67;99734.41;5079268;28;20049;-50
2021/09/11 05:21:53;;;;;;;11.18;6.35;;;;;;;14.03;79.05;99736.78;5078954;28;20048;-50
2021/09/11 05:24:19;;;;;;;9.13;6.15;;;;;;;14.54;78.59;99734.75;5079263;28;20048;-50
2021/09/11 05:26:45;;;;;;;11.68;5.95;;;;;;;15.06;77.82;99739.53;5079162;28;20071;-50
2021/09/11 05:29:11;;;;;;;10.93;5.13;;;;;;;15.63;77.38;99743.06;5078795;28;20478;-50
2021/09/11 05:31:37;;;;;;;10.10;5.00;;;;;;;16.15;76.48;99737.09;5078827;28;20047;-50
2021/09/11 05:34:05;;;;;;;8.38;5.50;;;;;;;16.69;74.88;99729.97;5078767;28;20040;-50
2021/09/11 05:36:31;;;;;;;10.82;5.68;;;;;;;17.08;73.27;99719.13;5078896;28;20091;-50
2021/09/11 05:38:57;;;;;;;9.48;5.30;;;;;;;17.53;72.46;99736.97;5078968;28;20049;-50
2021/09/11 05:41:24;;;;;;;11.38;5.72;;;;;;;17.91;71.05;99733.19;5079243;28;20067;-50
2021/09/11 05:43:49;;;;;;;9.55;5.68;;;;;;;18.31;68.83;99723.78;5078913;28;20446;-50
2021/09/11 05:46:15;;;;;;;10.88;4.78;;;;;;;18.66;68.61;99728.81;5078486;28;20044;-50
2021/09/11 05:48:41;;;;;;;7.00;5.07;;;;;;;18.94;66.64;99725.38;5078527;28;20048;-50
2021/09/11 05:51:07;;;;;;;8.23;5.20;;;;;;;19.24;66.32;99724.44;5078705;28;20049;-50
2021/09/11 05:53:33;;;;;;;9.43;5.53;;;;;;;19.44;65.46;99716.09;5078513;28;20047;-50
2021/09/11 05:55:59;;;;;;;13.70;5.40;;;;;;;19.61;64.26;99713.19;5078372;28;20370;-50
2021/09/11 05:58:25;;;;;;;7.25;5.93;;;;;;;19.75;62.44;99730.09;5078519;28;20048;-50
2021/09/11 06:00:51;;;;;;;9.30;5.50;;;;;;;19.80;62.77;99730.66;5078224;28;20447;-50
2021/09/11 06:03:17;;;;;;;7.22;4.82;;;;;;;19.87;62.71;99731.97;5078417;28;20056;-50
2021/09/11 06:05:42;;;;;;;8.77;5.35;;;;;;;20.16;62.35;99729.22;5078241;28;20405;-50
2021/09/11 06:08:08;;;;;;;10.73;5.50;;;;;;;20.39;61.60;99728.53;5078416;28;20040;-50
2021/09/11 06:10:34;;;;;;;15.10;5.18;;;;;;;20.58;60.61;99732.66;5078355;28;20045;-50
2021/09/11 06:13:00;;;;;;;11.10;5.50;;;;;;;20.47;59.95;99702.28;5077333;28;20048;-50
2021/09/11 06:15:26;;;;;;;8.25;5.47;;;;;;;20.86;59.56;99734.28;5077059;28;20068;-50
2021/09/11 06:17:52;;;;;;;10.27;5.50;;;;;;;21.04;58.96;99725.03;5077844;28;20045;-50
2021/09/11 06:20:18;;;;;;;10.07;5.50;;;;;;;21.31;58.33;99737.34;5078461;28;20123;-50
2021/09/11 06:22:43;;;;;;;9.57;5.25;;;;;;;21.51;57.84;99735.97;5078141;28;20056;-50
2021/09/11 06:25:10;;;;;;;10.07;5.32;;;;;;;21.72;57.27;99736.25;5078388;28;20422;-50
2021/09/11 06:27:35;;;;;;;7.05;5.00;;;;;;;21.98;57.07;99737.88;5077802;28;20048;-50
2021/09/11 06:30:01;;;;;;;9.52;5.15;;;;;;;22.13;55.00;99738.53;5077945;28;20055;-50
2021/09/11 06:32:27;;;;;;;9.75;4.40;;;;;;;22.35;55.25;99727.16;5077276;28;20066;-50
2021/09/11 06:34:53;;;;;;;7.18;4.32;;;;;;;22.56;53.84;99741.56;5077705;28;20067;-50
2021/09/11 06:37:19;;;;;;;10.88;4.97;;;;;;;22.75;53.63;99735.69;5075598;28;20051;-50
2021/09/11 06:39:45;;;;;;;12.32;5.32;;;;;;;22.97;54.05;99740.22;5076232;28;20047;-50
2021/09/11 06:42:12;;;;;;;10.45;4.97;;;;;;;23.23;53.45;99732.00;5076371;28;20106;-50
2021/09/11 06:44:38;;;;;;;10.13;4.38;;;;;;;23.33;52.56;99733.84;5077649;28;20048;-50
2021/09/11 06:47:04;;;;;;;10.13;5.22;;;;;;;23.36;51.13;99731.88;5077310;28;20079;-50
2021/09/11 06:49:29;;;;;;;7.18;4.20;;;;;;;23.37;51.51;99729.09;5077898;28;20040;-51
2021/09/11 06:51:55;;;;;;;6.85;4.30;;;;;;;23.48;51.60;99731.75;5077519;28;20063;-50
2021/09/11 06:54:21;;;;;;;8.82;4.65;;;;;;;23.53;50.75;99734.06;5076916;28;20135;-51
2021/09/11 06:56:47;;;;;;;6.35;4.43;;;;;;;23.70;51.69;99738.94;5075412;28;20044;-50
2021/09/11 06:59:12;;;;;;;7.10;4.20;;;;;;;23.94;52.37;99735.22;5075464;28;20048;-50
2021/09/11 07:01:38;;;;;;;7.95;4.57;;;;;;;24.08;51.25;99739.44;5075874;28;20060;-50
2021/09/11 07:04:04;;;;;;;8.02;4.07;;;;;;;24.24;52.10;99745.22;5076334;28;20059;-50
2021/09/11 07:06:31;;;;;;;7.15;4.65;;;;;;;24.47;51.55;99737.97;5076948;28;20052;-50
2021/09/11 07:08:57;;;;;;;5.97;4.18;;;;;;;24.63;51.70;99727.69;5077189;28;20053;-50
2021/09/11 07:11:22;;;;;;;12.52;4.60;;;;;;;24.68;49.49;99738.84;5077469;28;20050;-50
2021/09/11 07:13:48;;;;;;;8.10;3.92;;;;;;;24.51;48.23;99735.94;5076596;28;20127;-50
2021/09/11 07:16:14;;;;;;;9.25;3.72;;;;;;;24.54;48.40;99749.91;5076754;28;20076;-50
2021/09/11 07:18:40;;;;;;;6.53;3.53;;;;;;;24.60;47.80;99748.50;5076999;28;20044;-50
2021/09/11 07:21:05;;;;;;;11.10;4.00;;;;;;;24.57;48.13;99746.09;5076942;28;20404;-50
2021/09/11 07:23:31;;;;;;;5.00;2.90;;;;;;;24.46;46.64;99747.84;5076918;28;20381;-50
2021/09/11 07:25:57;;;;;;;8.18;3.70;;;;;;;24.49;47.38;99750.25;5076564;28;20044;-51
2021/09/11 07:28:23;;;;;;;10.77;3.67;;;;;;;24.55;47.87;99751.59;5076598;28;20051;-51
2021/09/11 07:30:49;;;;;;;5.40;3.20;;;;;;;24.61;47.20;99744.88;5076797;28;20044;-50
2021/09/11 07:33:14;;;;;;;8.15;3.47;;;;;;;24.62;45.83;99751.91;5076502;28;20044;-50
2021/09/11 07:35:40;;;;;;;7.80;3.53;;;;;;;24.70;45.50;99750.31;5076719;28;20049;-50
2021/09/11 07:38:06;;;;;;;7.72;3.22;;;;;;;24.81;46.07;99752.06;5076390;28;20056;-51
2021/09/11 07:40:32;;;;;;;6.97;3.38;;;;;;;25.00;45.82;99750.50;5077155;28;20067;-51
2021/09/11 07:42:57;;;;;;;4.97;3.03;;;;;;;25.14;45.92;99751.00;5076166;28;20135;-50
2021/09/11 07:45:23;;;;;;;7.85;2.92;;;;;;;25.16;44.36;99742.84;5075716;28;20048;-51
2021/09/11 07:47:49;;;;;;;5.35;2.80;;;;;;;25.30;45.03;99747.00;5076873;28;20131;-50
2021/09/11 07:50:15;;;;;;;6.18;2.92;;;;;;;25.41;44.32;99753.13;5076506;28;20048;-50
2021/09/11 07:52:41;;;;;;;6.20;2.92;;;;;;;25.51;43.25;99749.63;5076184;28;20449;-50
2021/09/11 07:55:08;;;;;;;7.20;3.42;;;;;;;25.58;43.39;99750.81;5076338;28;20044;-50
2021/09/11 07:57:34;;;;;;;7.50;2.95;;;;;;;25.71;43.88;99754.09;5076304;28;20048;-51
2021/09/11 08:00:00;;;;;;;3.83;2.85;;;;;;;25.81;43.03;99760.34;5076408;28;20063;-50
2021/09/11 08:02:26;;;;;;;6.20;3.08;;;;;;;25.83;42.40;99755.69;5076663;28;20338;-51
2021/09/11 08:04:51;;;;;;;7.18;3.03;;;;;;;25.80;41.35;99752.41;5076028;28;20082;-50
2021/09/11 08:07:17;;;;;;;5.55;2.88;;;;;;;25.81;41.62;99760.34;5076325;28;20048;-50
2021/09/11 08:09:43;;;;;;;5.50;3.28;;;;;;;25.92;42.68;99761.22;5076601;28;20054;-50
2021/09/11 08:12:09;;;;;;;8.95;3.25;;;;;;;26.04;42.52;99744.03;5075961;28;20508;-51
2021/09/11 08:14:35;;;;;;;4.22;2.67;;;;;;;26.18;42.76;99745.44;5076031;28;20044;-50
2021/09/11 08:17:02;;;;;;;5.43;2.92;;;;;;;26.31;40.50;99754.06;5075842;28;20045;-50
2021/09/11 08:19:27;;;;;;;4.50;2.70;;;;;;;26.32;41.23;99756.63;5076177;28;20052;-50
2021/09/11 08:21:53;;;;;;;4.55;2.72;;;;;;;26.42;40.91;99753.94;5075060;28;20126;-50
2021/09/11 08:24:19;;;;;;;5.40;3.42;;;;;;;26.51;41.65;99752.25;5075915;28;20040;-51
2021/09/11 08:26:45;;;;;;;4.30;2.60;;;;;;;26.62;41.23;99762.00;5077981;28;20048;-50
2021/09/11 08:29:12;;;;;;;9.23;2.75;;;;;;;26.67;40.93;99749.84;5080027;28;20048;-50
2021/09/11 08:31:38;;;;;;;6.90;2.90;;;;;;;26.87;41.08;99755.19;5095894;28;20458;-49
2021/09/11 08:34:03;;;;;;;5.32;2.15;;;;;;;26.97;40.53;99751.50;5080188;28;20115;-51
2021/09/11 08:36:29;;;;;;;5.50;2.28;;;;;;;27.06;40.02;99755.16;5079042;28;20434;-50
2021/09/11 08:38:55;;;;;;;5.13;2.63;;;;;;;27.16;40.42;99756.00;5079677;28;20045;-50
2021/09/11 08:41:21;;;;;;;5.55;2.67;;;;;;;27.27;40.85;99744.25;5079532;28;20060;-51
2021/09/11 08:43:47;;;;;;;4.35;2.67;;;;;;;27.43;40.69;99755.22;5079183;28;20060;-50
2021/09/11 08:46:12;;;;;;;4.35;2.50;;;;;;;27.50;39.40;99745.56;5079945;28;20052;-50
2021/09/11 08:48:38;;;;;;;6.15;2.85;;;;;;;27.61;39.55;99751.72;5079577;28;20040;-50
2021/09/11 08:51:04;;;;;;;7.28;3.00;;;;;;;27.69;39.56;99749.16;5079561;28;20056;-50
2021/09/11 08:53:30;;;;;;;6.50;3.00;;;;;;;27.79;39.78;99746.41;5079816;28;20056;-50
2021/09/11 08:55:55;;;;;;;5.22;2.80;;;;;;;27.85;40.65;99749.38;5079437;28;20435;-50
2021/09/11 08:58:22;;;;;;;9.77;3.28;;;;;;;27.98;40.56;99745.47;5078804;28;20053;-50
2021/09/11 09:00:47;;;;;;;4.25;3.10;;;;;;;28.12;40.71;99753.03;5079141;28;20410;-50
2021/09/11 09:03:35;;;;;;;10.13;2.75;;;;;;;28.15;38.59;99747.34;5078785;28;20048;-50
2021/09/11 09:06:13;;;;;;;6.25;3.17;;;;;;;28.19;39.22;99756.81;5079637;28;20106;-50
2021/09/11 09:08:39;;;;;;;3.78;2.72;;;;;;;28.19;39.29;99749.56;5078699;28;20048;-50
2021/09/11 09:11:24;;;;;;;5.97;2.92;;;;;;;28.11;37.78;99733.34;5079907;28;20052;-49
2021/09/11 09:14:14;;;;;;;4.65;2.58;;;;;;;28.17;39.15;99739.94;5078917;28;20052;-51
2021/09/11 09:16:50;;;;;;;3.38;2.35;;;;;;;28.14;38.20;99745.63;5079400;28;20415;-50
2021/09/11 09:19:19;;;;;;;3.70;2.33;;;;;;;28.18;39.42;99747.88;5079660;28;20319;-51
2021/09/11 09:21:47;;;;;;;4.68;2.60;;;;;;;28.31;38.55;99747.50;5079254;28;20056;-50
2021/09/11 09:24:14;;;;;;;6.68;2.50;;;;;;;28.43;38.80;99751.66;5079242;28;20186;-50
2021/09/11 09:27:03;;;;;;;3.58;2.42;;;;;;;28.60;37.27;99744.59;5078336;28;20404;-51
2021/09/11 09:29:29;;;;;;;3.30;2.30;;;;;;;28.63;37.96;99738.03;5078328;28;20036;-50
2021/09/11 09:31:56;;;;;;;4.22;2.22;;;;;;;28.76;38.05;99735.81;5078730;28;20362;-50
2021/09/11 09:34:36;;;;;;;9.10;2.72;;;;;;;28.85;37.31;99744.78;5079049;28;20048;-50
2021/09/11 09:37:04;;;;;;;6.05;2.50;;;;;;;28.87;37.20;99749.00;5094220;28;20056;-50
2021/09/11 09:39:30;;;;;;;8.77;2.70;;;;;;;28.88;37.88;99750.69;5078626;28;20140;-51
2021/09/11 09:42:03;;;;;;;5.50;2.55;;;;;;;29.01;37.84;99744.91;5077541;28;20136;-50
2021/09/11 09:44:29;;;;;;;6.85;2.55;;;;;;;29.06;37.84;99745.28;5078059;28;20053;-50
2021/09/11 09:46:55;;;;;;;7.85;3.03;;;;;;;29.12;38.36;99749.22;5077615;28;20053;-50
2021/09/11 09:49:22;;;;;;;4.55;2.63;;;;;;;29.33;37.92;99751.50;5078816;28;20036;-50
2021/09/11 09:51:48;;;;;;;5.38;2.92;;;;;;;29.47;38.23;99750.91;5078496;28;20044;-50
2021/09/11 09:54:15;;;;;;;11.13;2.38;;;;;;;29.59;37.98;99756.88;5078727;28;20059;-50
2021/09/11 09:56:41;;;;;;;5.45;2.72;;;;;;;29.74;38.37;99749.03;5078549;28;20059;-50
2021/09/11 09:59:07;;;;;;;5.60;2.10;;;;;;;29.84;36.72;99747.03;5077750;28;20084;-50
2021/09/11 10:01:33;;;;;;;6.22;2.40;;;;;;;29.88;36.80;99745.69;5078319;28;20051;-51
2021/09/11 10:04:14;;;;;;;10.55;2.88;;;;;;;29.98;35.94;99745.56;5078545;28;20048;-51
2021/09/11 10:06:41;;;;;;;8.00;3.13;;;;;;;29.93;36.90;99746.06;5078829;28;20105;-50
2021/09/11 10:09:07;;;;;;;6.03;2.53;;;;;;;29.98;37.15;99749.09;5078980;28;20094;-50
2021/09/11 10:11:38;;;;;;;7.20;2.95;;;;;;;30.14;36.20;99742.06;5044431;28;20431;-51
2021/09/11 10:14:13;;;;;;;9.00;3.33;;;;;;;30.17;36.03;99730.91;5077519;28;20048;-50
2021/09/11 10:16:41;;;;;;;4.40;2.55;;;;;;;30.28;37.00;99742.25;5077386;28;20068;-50
2021/09/11 10:19:26;;;;;;;3.28;2.30;;;;;;;30.27;35.85;99737.03;5077399;28;20346;-50
2021/09/11 10:22:19;;;;;;;4.13;2.50;;;;;;;30.18;36.62;99738.00;5077942;28;20049;-51
2021/09/11 10:24:50;;;;;;;3.55;2.10;;;;;;;30.26;36.98;99738.06;5092397;28;20412;-50
2021/09/11 10:27:23;;;;;;;7.18;2.90;;;;;;;30.37;35.96;99739.59;5077782;28;20052;-49
2021/09/11 10:29:53;;;;;;;6.25;3.08;;;;;;;30.47;37.12;99733.00;5093595;28;20044;-51
2021/09/11 10:32:34;;;;;;;4.57;2.65;;;;;;;30.54;36.62;99735.88;5077674;28;20067;-51
2021/09/11 10:35:20;;;;;;;8.55;2.97;;;;;;;30.58;36.50;99731.84;5077992;28;20036;-50
2021/09/11 10:37:52;;;;;;;5.03;2.60;;;;;;;30.59;36.57;99738.06;5092869;28;20048;-50
2021/09/11 10:40:23;;;;;;;7.25;2.88;;;;;;;30.67;36.94;99729.94;5077815;28;20071;-50
2021/09/11 10:43:18;;;;;;;4.75;2.50;;;;;;;30.70;35.77;99733.16;5077346;28;20053;-50
2021/09/11 10:45:53;;;;;;;4.32;2.17;;;;;;;30.76;36.21;99722.69;5077248;28;20053;-50
2021/09/11 10:48:39;;;;;;;6.32;2.28;;;;;;;30.79;35.93;99725.09;5077593;28;20040;-51
2021/09/11 10:51:28;;;;;;;2.83;2.30;;;;;;;30.83;37.67;99727.25;5076707;28;20052;-51
2021/09/11 10:54:22;;;;;;;4.25;2.35;;;;;;;30.85;37.44;99724.41;5077897;28;20119;-50
2021/09/11 10:57:00;;;;;;;7.47;2.70;;;;;;;30.90;36.49;99720.16;5077295;28;20419;-51
2021/09/11 10:59:34;;;;;;;9.70;2.70;;;;;;;30.99;36.34;99723.69;5077453;28;20048;-50
2021/09/11 11:02:21;;;;;;;2.70;2.30;;;;;;;31.05;37.88;99723.00;5077400;28;20053;-50
2021/09/11 11:04:46;;;;;;;3.00;2.13;;;;;;;31.18;36.48;99725.19;5077449;28;20041;-51
2021/09/11 11:07:13;;;;;;;7.28;2.40;;;;;;;31.25;35.76;99723.47;5077243;28;20442;-50
2021/09/11 11:09:46;;;;;;;3.40;1.90;;;;;;;31.32;35.58;99716.31;5059741;28;20059;-50
2021/09/11 11:12:13;;;;;;;6.10;2.40;;;;;;;31.29;36.32;99721.25;5077221;28;20052;-51
2021/09/11 11:14:45;;;;;;;3.42;2.33;;;;;;;31.16;35.79;99714.50;5059713;28;20044;-50
2021/09/11 11:17:12;;;;;;;5.57;2.42;;;;;;;31.19;36.27;99702.50;5076768;28;20052;-51
2021/09/11 11:19:44;;;;;;;3.33;2.08;;;;;;;31.18;35.73;99719.75;5076150;28;20068;-51
2021/09/11 11:22:12;;;;;;;7.57;2.40;;;;;;;31.05;33.52;99708.66;5076719;28;20512;-51
2021/09/11 11:24:40;;;;;;;2.63;1.90;;;;;;;31.07;34.91;99699.34;5075774;28;20048;-50
2021/09/11 11:27:30;;;;;;;3.70;2.00;;;;;;;31.10;35.31;99703.53;5076873;28;20044;-51